createdAt,value
2022-12-07T00:03:37.377Z,17
2022-12-07T00:08:36.548Z,17
2022-12-07T00:13:36.620Z,18
2022-12-07T00:18:37.222Z,21
2022-12-07T00:23:37.222Z,18
2022-12-07T00:28:36.611Z,19
2022-12-07T00:33:37.084Z,16
2022-12-07T00:38:36.606Z,18
2022-12-07T00:43:37.172Z,19
2022-12-07T00:48:37.136Z,19
2022-12-07T00:53:41.226Z,15
2022-12-07T00:58:42.267Z,18
2022-12-07T01:03:36.765Z,20
2022-12-07T01:08:37.417Z,20
2022-12-07T01:13:37.291Z,21
2022-12-07T01:18:37.325Z,20
2022-12-07T01:23:37.300Z,20
2022-12-07T01:28:37.913Z,20
2022-12-07T01:33:37.336Z,21
2022-12-07T01:38:37.261Z,21
2022-12-07T01:43:37.803Z,22
2022-12-07T01:48:36.771Z,22
2022-12-07T01:53:37.277Z,21
2022-12-07T01:58:36.783Z,20
2022-12-07T02:03:37.499Z,19
2022-12-07T02:08:37.414Z,20
2022-12-07T02:13:36.770Z,20
2022-12-07T02:18:37.556Z,21
2022-12-07T02:23:37.282Z,20
2022-12-07T02:28:37.323Z,19
2022-12-07T02:33:37.450Z,22
2022-12-07T02:38:37.405Z,22
2022-12-07T02:43:38.069Z,22
2022-12-07T02:48:37.387Z,21
2022-12-07T02:53:37.682Z,21
2022-12-07T02:58:36.959Z,23
2022-12-07T03:03:42.353Z,21
2022-12-07T03:08:37.501Z,22
2022-12-07T03:13:37.379Z,21
2022-12-07T03:18:37.429Z,23
2022-12-07T03:23:37.402Z,22
2022-12-07T03:28:37.408Z,21
2022-12-07T03:33:37.512Z,22
2022-12-07T03:38:36.930Z,21
2022-12-07T03:43:37.081Z,23
2022-12-07T03:48:38.217Z,21
2022-12-07T03:53:37.209Z,23
2022-12-07T03:58:36.974Z,24
2022-12-07T04:03:37.031Z,23
2022-12-07T04:08:36.951Z,21
2022-12-07T04:13:38.109Z,21
2022-12-07T04:18:37.521Z,22
2022-12-07T04:23:37.541Z,23
2022-12-07T04:28:37.532Z,23
2022-12-07T04:33:37.492Z,22
2022-12-07T04:38:37.582Z,23
2022-12-07T04:43:37.044Z,23
2022-12-07T04:48:38.266Z,25
2022-12-07T04:53:37.694Z,29
2022-12-07T04:58:37.606Z,25
2022-12-07T05:03:37.567Z,26
2022-12-07T05:08:38.188Z,25
2022-12-07T05:13:38.210Z,24
2022-12-07T05:18:38.271Z,24
2022-12-07T05:23:38.333Z,23
2022-12-07T05:28:38.200Z,27
2022-12-07T05:33:37.678Z,27
2022-12-07T05:38:37.674Z,25
2022-12-07T05:43:38.372Z,23
2022-12-07T05:48:37.669Z,27
2022-12-07T05:53:37.659Z,29
2022-12-07T05:58:37.188Z,28
2022-12-07T06:03:37.251Z,26
2022-12-07T06:08:37.815Z,28
2022-12-07T06:13:40.087Z,27
2022-12-07T06:18:37.837Z,27
2022-12-07T06:23:38.533Z,25
2022-12-07T06:28:37.856Z,24
2022-12-07T06:33:38.583Z,24
2022-12-07T06:38:38.476Z,22
2022-12-07T06:43:37.267Z,24
2022-12-07T06:48:38.473Z,22
2022-12-07T06:53:37.857Z,24
2022-12-07T06:58:37.302Z,24
2022-12-07T07:03:37.875Z,24
2022-12-07T07:08:37.913Z,23
2022-12-07T07:13:38.650Z,25
2022-12-07T07:18:37.929Z,22
2022-12-07T07:23:37.383Z,24
2022-12-07T07:28:38.574Z,27
2022-12-07T07:33:37.901Z,22
2022-12-07T07:38:37.952Z,22
2022-12-07T07:43:38.539Z,22
2022-12-07T07:48:37.958Z,25
2022-12-07T07:53:37.954Z,30
2022-12-07T07:58:37.431Z,28
2022-12-07T08:03:37.395Z,25
2022-12-07T08:08:38.115Z,23
2022-12-07T08:13:38.584Z,27
2022-12-07T08:18:37.467Z,22
2022-12-07T08:23:39.980Z,22
2022-12-07T08:28:38.039Z,23
2022-12-07T08:33:38.022Z,24
2022-12-07T08:38:38.663Z,23
2022-12-07T08:43:38.664Z,25
2022-12-07T08:48:38.785Z,24
2022-12-07T08:53:37.499Z,25
2022-12-07T08:58:37.705Z,28
2022-12-07T09:03:37.480Z,24
2022-12-07T09:08:39.820Z,24
2022-12-07T09:13:37.523Z,27
2022-12-07T09:18:38.049Z,24
2022-12-07T09:23:38.641Z,25
2022-12-07T09:28:38.036Z,47
2022-12-07T09:33:38.065Z,24
2022-12-07T09:38:38.101Z,22
2022-12-07T09:43:38.094Z,24
2022-12-07T09:48:37.705Z,37
2022-12-07T09:53:37.597Z,32
2022-12-07T09:58:43.448Z,22
2022-12-07T10:03:37.663Z,24
2022-12-07T10:08:38.722Z,23
2022-12-07T10:13:38.093Z,24
2022-12-07T10:18:38.131Z,24
2022-12-07T10:23:38.101Z,24
2022-12-07T10:28:42.006Z,24
2022-12-07T10:33:38.143Z,45
2022-12-07T10:38:38.772Z,40
2022-12-07T10:43:38.892Z,23
2022-12-07T10:48:38.160Z,25
2022-12-07T10:53:38.158Z,25
2022-12-07T10:58:38.325Z,31
2022-12-07T11:03:37.804Z,25
2022-12-07T11:08:38.401Z,26
2022-12-07T11:13:38.215Z,26
2022-12-07T11:18:38.265Z,27
2022-12-07T11:23:37.719Z,27
2022-12-07T11:28:38.839Z,27
2022-12-07T11:33:38.402Z,25
2022-12-07T11:38:38.294Z,28
2022-12-07T11:43:37.778Z,26
2022-12-07T11:48:38.297Z,26
2022-12-07T11:53:38.912Z,24
2022-12-07T11:58:38.408Z,25
2022-12-07T12:03:37.843Z,24
2022-12-07T12:18:38.494Z,24
2022-12-07T12:23:37.858Z,23
2022-12-07T12:28:38.531Z,23
2022-12-07T12:33:41.502Z,25
2022-12-07T12:38:38.378Z,26
2022-12-07T12:43:38.378Z,23
2022-12-07T12:48:37.881Z,24
2022-12-07T12:53:38.375Z,21
2022-12-07T12:58:37.911Z,21
2022-12-07T13:03:38.450Z,24
2022-12-07T13:08:38.485Z,23
2022-12-07T13:13:39.014Z,22
2022-12-07T13:18:39.058Z,19
2022-12-07T13:23:38.566Z,22
2022-12-07T13:28:38.454Z,22
2022-12-07T13:33:38.473Z,21
2022-12-07T13:38:38.470Z,21
2022-12-07T13:43:38.531Z,21
2022-12-07T13:48:38.511Z,20
2022-12-07T13:53:38.477Z,22
2022-12-07T13:58:38.013Z,20
2022-12-07T14:03:38.076Z,25
2022-12-07T14:08:40.349Z,24
2022-12-07T14:13:38.141Z,21
2022-12-07T14:18:38.187Z,20
2022-12-07T14:23:39.139Z,23
2022-12-07T14:28:38.073Z,21
2022-12-07T14:33:38.054Z,20
2022-12-07T14:38:38.696Z,19
2022-12-07T14:43:42.097Z,21
2022-12-07T14:53:39.232Z,21
2022-12-07T14:58:38.701Z,20
2022-12-07T15:03:38.335Z,19
2022-12-07T15:08:38.646Z,20
2022-12-07T15:13:39.234Z,20
2022-12-07T15:18:42.506Z,21
2022-12-07T15:23:39.430Z,20
2022-12-07T15:28:39.272Z,22
2022-12-07T15:33:39.311Z,23
2022-12-07T15:39:05.497Z,20
2022-12-07T15:43:38.697Z,23
2022-12-07T15:48:39.299Z,19
2022-12-07T15:53:38.464Z,20
2022-12-07T15:58:38.989Z,21
2022-12-07T16:03:38.916Z,22
2022-12-07T16:08:39.453Z,22
2022-12-07T16:13:38.845Z,20
2022-12-07T16:18:39.464Z,20
2022-12-07T16:23:38.885Z,21
2022-12-07T16:28:38.882Z,22
2022-12-07T16:33:38.743Z,20
2022-12-07T16:38:38.791Z,21
2022-12-07T16:43:38.775Z,21
2022-12-07T16:48:38.866Z,22
2022-12-07T16:53:38.330Z,22
2022-12-07T16:58:38.529Z,23
2022-12-07T17:03:38.420Z,22
2022-12-07T17:08:39.475Z,21
2022-12-07T17:13:38.871Z,22
2022-12-07T17:18:38.911Z,24
2022-12-07T17:23:38.875Z,19
2022-12-07T17:28:38.889Z,21
2022-12-07T17:33:38.941Z,21
2022-12-07T17:38:38.413Z,20
2022-12-07T17:43:39.747Z,21
2022-12-07T17:48:39.636Z,18
2022-12-07T17:53:39.690Z,18
2022-12-07T17:58:39.061Z,17
2022-12-07T18:03:38.525Z,17
2022-12-07T18:08:38.433Z,16
2022-12-07T18:13:39.701Z,20
2022-12-07T18:18:40.888Z,16
2022-12-07T18:23:41.515Z,18
2022-12-07T18:28:38.513Z,17
2022-12-07T18:33:39.785Z,21
2022-12-07T18:38:39.101Z,24
2022-12-07T18:43:39.721Z,23
2022-12-07T18:48:39.118Z,22
2022-12-07T18:53:39.109Z,21
2022-12-07T18:58:38.524Z,16
2022-12-07T19:03:38.539Z,15
2022-12-07T19:08:39.143Z,15
2022-12-07T19:13:39.845Z,16
2022-12-07T19:18:39.186Z,19
2022-12-07T19:23:39.163Z,15
2022-12-07T19:28:39.379Z,22
2022-12-07T19:33:39.814Z,16
2022-12-07T19:38:39.826Z,21
2022-12-07T19:43:39.811Z,19
2022-12-07T19:48:39.835Z,17
2022-12-07T19:53:38.648Z,17
2022-12-07T19:58:38.622Z,18
2022-12-07T20:03:44.698Z,20
2022-12-07T20:08:39.261Z,17
2022-12-07T20:13:39.310Z,19
2022-12-07T20:18:40.002Z,18
2022-12-07T20:23:39.353Z,17
2022-12-07T20:28:39.327Z,16
2022-12-07T20:33:38.725Z,15
2022-12-07T20:38:39.321Z,13
2022-12-07T20:43:39.377Z,12
2022-12-07T20:48:39.324Z,12
2022-12-07T20:53:39.369Z,10
2022-12-07T20:58:38.720Z,10
2022-12-07T21:03:38.760Z,12
2022-12-07T21:08:39.335Z,10
2022-12-07T21:13:40.103Z,9
2022-12-07T21:18:39.434Z,9
2022-12-07T21:23:39.972Z,10
2022-12-07T21:28:39.970Z,11
2022-12-07T21:33:39.467Z,10
2022-12-07T21:38:39.461Z,19
2022-12-07T21:43:39.398Z,15
2022-12-07T21:48:38.834Z,15
2022-12-07T21:53:38.864Z,16
2022-12-07T21:58:39.486Z,19
2022-12-07T22:03:39.496Z,16
2022-12-07T22:08:38.935Z,15
2022-12-07T22:13:39.529Z,14
2022-12-07T22:18:39.644Z,21
2022-12-07T22:23:39.516Z,25
2022-12-07T22:28:39.539Z,21
2022-12-07T22:33:40.138Z,25
2022-12-07T22:38:39.562Z,23
2022-12-07T22:43:39.492Z,18
2022-12-07T22:48:39.510Z,16
2022-12-07T22:53:39.559Z,24
2022-12-07T22:58:39.538Z,23
2022-12-07T23:03:39.179Z,24
2022-12-07T23:08:39.032Z,21
2022-12-07T23:13:40.078Z,18
2022-12-07T23:18:38.945Z,20
2022-12-07T23:23:39.506Z,20
2022-12-07T23:28:39.512Z,19
2022-12-07T23:33:39.552Z,20
2022-12-07T23:38:41.331Z,19
2022-12-07T23:43:39.578Z,18
2022-12-07T23:48:39.015Z,18
2022-12-07T23:53:40.315Z,19
2022-12-07T23:58:39.555Z,20
